sensor_id;sensor_type;location;lat;lon;timestamp;temperature;humidity
6948;DHT22;3513;47.664;9.162;2023-05-07T00:01:24;14.20;99.90
6948;DHT22;3513;47.664;9.162;2023-05-07T00:03:49;14.20;99.90
6948;DHT22;3513;47.664;9.162;2023-05-07T00:06:15;14.20;99.90
6948;DHT22;3513;47.664;9.162;2023-05-07T00:08:40;14.20;99.90
6948;DHT22;3513;47.664;9.162;2023-05-07T00:11:06;14.20;99.90
6948;DHT22;3513;47.664;9.162;2023-05-07T00:13:31;14.20;99.90
6948;DHT22;3513;47.664;9.162;2023-05-07T00:16:03;14.10;99.90
6948;DHT22;3513;47.664;9.162;2023-05-07T00:18:29;14.20;99.90
6948;DHT22;3513;47.664;9.162;2023-05-07T00:20:55;14.10;99.90
6948;DHT22;3513;47.664;9.162;2023-05-07T00:23:21;14.10;99.90
6948;DHT22;3513;47.664;9.162;2023-05-07T00:25:47;14.10;99.90
6948;DHT22;3513;47.664;9.162;2023-05-07T00:28:12;14.00;99.90
6948;DHT22;3513;47.664;9.162;2023-05-07T00:30:38;14.00;99.90
6948;DHT22;3513;47.664;9.162;2023-05-07T00:33:04;13.90;99.90
6948;DHT22;3513;47.664;9.162;2023-05-07T00:35:29;13.90;99.90
6948;DHT22;3513;47.664;9.162;2023-05-07T00:37:55;13.90;99.90
6948;DHT22;3513;47.664;9.162;2023-05-07T00:40:21;13.90;99.90
6948;DHT22;3513;47.664;9.162;2023-05-07T00:42:47;13.90;99.90
6948;DHT22;3513;47.664;9.162;2023-05-07T00:45:14;13.90;99.90
6948;DHT22;3513;47.664;9.162;2023-05-07T00:47:40;13.90;99.90
6948;DHT22;3513;47.664;9.162;2023-05-07T00:50:07;13.90;99.90
6948;DHT22;3513;47.664;9.162;2023-05-07T00:52:33;13.90;99.90
6948;DHT22;3513;47.664;9.162;2023-05-07T00:55:04;13.90;99.90
6948;DHT22;3513;47.664;9.162;2023-05-07T00:57:36;13.90;99.90
6948;DHT22;3513;47.664;9.162;2023-05-07T01:00:04;13.90;99.90
6948;DHT22;3513;47.664;9.162;2023-05-07T01:02:29;13.90;99.90
6948;DHT22;3513;47.664;9.162;2023-05-07T01:04:56;13.90;99.90
6948;DHT22;3513;47.664;9.162;2023-05-07T01:07:22;13.80;99.90
6948;DHT22;3513;47.664;9.162;2023-05-07T01:09:48;13.80;99.90
6948;DHT22;3513;47.664;9.162;2023-05-07T01:12:15;13.80;99.90
6948;DHT22;3513;47.664;9.162;2023-05-07T01:14:41;13.70;99.90
6948;DHT22;3513;47.664;9.162;2023-05-07T01:17:07;13.70;99.90
6948;DHT22;3513;47.664;9.162;2023-05-07T01:19:34;13.70;99.90
6948;DHT22;3513;47.664;9.162;2023-05-07T01:22:08;13.70;99.90
6948;DHT22;3513;47.664;9.162;2023-05-07T01:24:34;13.60;99.90
6948;DHT22;3513;47.664;9.162;2023-05-07T01:27:01;13.60;99.90
6948;DHT22;3513;47.664;9.162;2023-05-07T01:29:27;13.70;99.90
6948;DHT22;3513;47.664;9.162;2023-05-07T01:31:53;13.60;99.90
6948;DHT22;3513;47.664;9.162;2023-05-07T01:34:21;13.60;99.90
6948;DHT22;3513;47.664;9.162;2023-05-07T01:36:48;13.60;99.90
6948;DHT22;3513;47.664;9.162;2023-05-07T01:39:14;13.60;99.90
6948;DHT22;3513;47.664;9.162;2023-05-07T01:41:41;13.50;99.90
6948;DHT22;3513;47.664;9.162;2023-05-07T01:44:08;13.50;99.90
6948;DHT22;3513;47.664;9.162;2023-05-07T01:46:35;13.50;99.90
6948;DHT22;3513;47.664;9.162;2023-05-07T01:49:01;13.50;99.90
6948;DHT22;3513;47.664;9.162;2023-05-07T01:51:26;13.50;99.90
6948;DHT22;3513;47.664;9.162;2023-05-07T01:53:53;13.50;99.90
6948;DHT22;3513;47.664;9.162;2023-05-07T01:56:19;13.50;99.90
6948;DHT22;3513;47.664;9.162;2023-05-07T01:58:45;13.40;99.90
6948;DHT22;3513;47.664;9.162;2023-05-07T02:01:13;13.40;99.90
6948;DHT22;3513;47.664;9.162;2023-05-07T02:03:38;13.40;99.90
6948;DHT22;3513;47.664;9.162;2023-05-07T02:06:04;13.40;99.90
6948;DHT22;3513;47.664;9.162;2023-05-07T02:08:30;13.40;99.90
6948;DHT22;3513;47.664;9.162;2023-05-07T02:10:56;13.40;99.90
6948;DHT22;3513;47.664;9.162;2023-05-07T02:13:22;13.30;99.90
6948;DHT22;3513;47.664;9.162;2023-05-07T02:15:49;13.30;99.90
6948;DHT22;3513;47.664;9.162;2023-05-07T02:18:16;13.20;99.90
6948;DHT22;3513;47.664;9.162;2023-05-07T02:20:42;13.20;99.90
6948;DHT22;3513;47.664;9.162;2023-05-07T02:23:08;13.20;99.90
6948;DHT22;3513;47.664;9.162;2023-05-07T02:25:34;13.20;99.90
6948;DHT22;3513;47.664;9.162;2023-05-07T02:27:59;13.10;99.90
6948;DHT22;3513;47.664;9.162;2023-05-07T02:30:25;13.10;99.90
6948;DHT22;3513;47.664;9.162;2023-05-07T02:32:51;13.10;99.90
6948;DHT22;3513;47.664;9.162;2023-05-07T02:35:17;13.10;99.90
6948;DHT22;3513;47.664;9.162;2023-05-07T02:37:43;13.10;99.90
6948;DHT22;3513;47.664;9.162;2023-05-07T02:40:09;13.00;99.90
6948;DHT22;3513;47.664;9.162;2023-05-07T02:42:34;13.00;99.90
6948;DHT22;3513;47.664;9.162;2023-05-07T02:45:00;13.00;99.90
6948;DHT22;3513;47.664;9.162;2023-05-07T02:47:26;13.00;99.90
6948;DHT22;3513;47.664;9.162;2023-05-07T02:49:55;13.00;99.90
6948;DHT22;3513;47.664;9.162;2023-05-07T02:52:21;12.90;99.90
6948;DHT22;3513;47.664;9.162;2023-05-07T02:54:47;12.80;99.90
6948;DHT22;3513;47.664;9.162;2023-05-07T02:57:12;12.80;99.90
6948;DHT22;3513;47.664;9.162;2023-05-07T02:59:38;12.80;99.90
6948;DHT22;3513;47.664;9.162;2023-05-07T03:02:03;12.70;99.90
6948;DHT22;3513;47.664;9.162;2023-05-07T03:04:29;12.60;99.90
6948;DHT22;3513;47.664;9.162;2023-05-07T03:06:54;12.60;99.90
6948;DHT22;3513;47.664;9.162;2023-05-07T03:09:20;12.60;99.90
6948;DHT22;3513;47.664;9.162;2023-05-07T03:11:46;12.60;99.90
6948;DHT22;3513;47.664;9.162;2023-05-07T03:14:11;12.50;99.90
6948;DHT22;3513;47.664;9.162;2023-05-07T03:16:37;12.50;99.90
6948;DHT22;3513;47.664;9.162;2023-05-07T03:19:03;12.50;99.90
6948;DHT22;3513;47.664;9.162;2023-05-07T03:21:29;12.40;99.90
6948;DHT22;3513;47.664;9.162;2023-05-07T03:23:55;12.30;99.90
6948;DHT22;3513;47.664;9.162;2023-05-07T03:26:21;12.20;99.90
6948;DHT22;3513;47.664;9.162;2023-05-07T03:28:47;12.30;99.90
6948;DHT22;3513;47.664;9.162;2023-05-07T03:31:12;12.20;99.90
6948;DHT22;3513;47.664;9.162;2023-05-07T03:33:56;12.20;99.90
6948;DHT22;3513;47.664;9.162;2023-05-07T03:36:22;12.20;99.90
6948;DHT22;3513;47.664;9.162;2023-05-07T03:38:49;12.10;99.90
6948;DHT22;3513;47.664;9.162;2023-05-07T03:41:15;12.10;99.90
6948;DHT22;3513;47.664;9.162;2023-05-07T03:43:40;12.10;99.90
6948;DHT22;3513;47.664;9.162;2023-05-07T03:46:06;12.00;99.90
6948;DHT22;3513;47.664;9.162;2023-05-07T03:48:31;12.00;99.90
6948;DHT22;3513;47.664;9.162;2023-05-07T03:50:58;12.00;99.90
6948;DHT22;3513;47.664;9.162;2023-05-07T03:53:23;11.90;99.90
6948;DHT22;3513;47.664;9.162;2023-05-07T03:55:49;11.90;99.90
6948;DHT22;3513;47.664;9.162;2023-05-07T03:58:15;11.90;99.90
6948;DHT22;3513;47.664;9.162;2023-05-07T04:00:41;11.90;99.90
6948;DHT22;3513;47.664;9.162;2023-05-07T04:03:06;11.80;99.90
6948;DHT22;3513;47.664;9.162;2023-05-07T04:05:32;11.80;99.90
6948;DHT22;3513;47.664;9.162;2023-05-07T04:07:59;11.80;99.90
6948;DHT22;3513;47.664;9.162;2023-05-07T04:10:25;11.80;99.90
6948;DHT22;3513;47.664;9.162;2023-05-07T04:12:50;11.70;99.90
6948;DHT22;3513;47.664;9.162;2023-05-07T04:15:16;11.70;99.90
6948;DHT22;3513;47.664;9.162;2023-05-07T04:17:42;11.80;99.90
6948;DHT22;3513;47.664;9.162;2023-05-07T04:20:16;11.80;99.90
6948;DHT22;3513;47.664;9.162;2023-05-07T04:22:41;11.80;99.90
6948;DHT22;3513;47.664;9.162;2023-05-07T04:25:08;11.90;99.90
6948;DHT22;3513;47.664;9.162;2023-05-07T04:27:34;11.90;99.90
6948;DHT22;3513;47.664;9.162;2023-05-07T04:30:00;12.00;99.90
6948;DHT22;3513;47.664;9.162;2023-05-07T04:32:26;12.00;99.90
6948;DHT22;3513;47.664;9.162;2023-05-07T04:34:54;12.00;99.90
6948;DHT22;3513;47.664;9.162;2023-05-07T04:37:20;12.00;99.90
6948;DHT22;3513;47.664;9.162;2023-05-07T04:39:46;12.10;99.90
6948;DHT22;3513;47.664;9.162;2023-05-07T04:42:15;12.20;99.90
6948;DHT22;3513;47.664;9.162;2023-05-07T04:44:40;12.30;99.90
6948;DHT22;3513;47.664;9.162;2023-05-07T04:47:06;12.50;99.90
6948;DHT22;3513;47.664;9.162;2023-05-07T04:49:31;12.40;99.90
6948;DHT22;3513;47.664;9.162;2023-05-07T04:51:57;12.40;99.90
6948;DHT22;3513;47.664;9.162;2023-05-07T04:54:23;12.40;99.90
6948;DHT22;3513;47.664;9.162;2023-05-07T04:56:48;12.50;99.90
6948;DHT22;3513;47.664;9.162;2023-05-07T04:59:14;12.50;99.90
6948;DHT22;3513;47.664;9.162;2023-05-07T05:01:39;12.50;99.90
6948;DHT22;3513;47.664;9.162;2023-05-07T05:04:05;12.60;99.90
6948;DHT22;3513;47.664;9.162;2023-05-07T05:06:31;12.60;99.90
6948;DHT22;3513;47.664;9.162;2023-05-07T05:08:57;12.70;99.90
6948;DHT22;3513;47.664;9.162;2023-05-07T05:11:23;12.80;99.90
6948;DHT22;3513;47.664;9.162;2023-05-07T05:13:49;12.90;99.90
6948;DHT22;3513;47.664;9.162;2023-05-07T05:16:15;13.00;99.90
6948;DHT22;3513;47.664;9.162;2023-05-07T05:18:41;13.10;99.90
6948;DHT22;3513;47.664;9.162;2023-05-07T05:21:06;13.20;99.90
6948;DHT22;3513;47.664;9.162;2023-05-07T05:23:32;13.30;99.90
6948;DHT22;3513;47.664;9.162;2023-05-07T05:25:58;13.40;99.90
6948;DHT22;3513;47.664;9.162;2023-05-07T05:28:24;13.50;99.90
6948;DHT22;3513;47.664;9.162;2023-05-07T05:30:50;13.60;99.90
6948;DHT22;3513;47.664;9.162;2023-05-07T05:33:15;13.70;99.90
6948;DHT22;3513;47.664;9.162;2023-05-07T05:35:41;13.80;99.90
6948;DHT22;3513;47.664;9.162;2023-05-07T05:38:07;13.90;99.90
6948;DHT22;3513;47.664;9.162;2023-05-07T05:40:33;14.00;99.90
6948;DHT22;3513;47.664;9.162;2023-05-07T05:42:59;14.10;99.90
6948;DHT22;3513;47.664;9.162;2023-05-07T05:45:25;14.10;99.90
6948;DHT22;3513;47.664;9.162;2023-05-07T05:47:50;14.10;99.90
6948;DHT22;3513;47.664;9.162;2023-05-07T05:50:16;14.20;99.90
6948;DHT22;3513;47.664;9.162;2023-05-07T05:52:41;14.20;99.90
6948;DHT22;3513;47.664;9.162;2023-05-07T05:55:07;14.20;99.90
6948;DHT22;3513;47.664;9.162;2023-05-07T05:57:33;14.30;99.90
6948;DHT22;3513;47.664;9.162;2023-05-07T06:00:00;14.50;99.90
6948;DHT22;3513;47.664;9.162;2023-05-07T06:02:26;14.50;99.90
6948;DHT22;3513;47.664;9.162;2023-05-07T06:04:52;14.70;99.90
6948;DHT22;3513;47.664;9.162;2023-05-07T06:07:18;14.70;99.90
6948;DHT22;3513;47.664;9.162;2023-05-07T06:09:43;14.60;99.90
6948;DHT22;3513;47.664;9.162;2023-05-07T06:12:09;14.60;99.90
6948;DHT22;3513;47.664;9.162;2023-05-07T06:14:35;14.80;99.90
6948;DHT22;3513;47.664;9.162;2023-05-07T06:17:00;14.80;99.90
6948;DHT22;3513;47.664;9.162;2023-05-07T06:19:26;14.90;99.90
6948;DHT22;3513;47.664;9.162;2023-05-07T06:21:53;15.00;99.90
6948;DHT22;3513;47.664;9.162;2023-05-07T06:24:19;15.10;99.90
6948;DHT22;3513;47.664;9.162;2023-05-07T06:26:44;15.20;99.90
6948;DHT22;3513;47.664;9.162;2023-05-07T06:29:10;15.40;99.90
6948;DHT22;3513;47.664;9.162;2023-05-07T06:31:36;15.50;99.90
6948;DHT22;3513;47.664;9.162;2023-05-07T06:34:01;15.60;99.90
6948;DHT22;3513;47.664;9.162;2023-05-07T06:36:28;15.70;99.90
6948;DHT22;3513;47.664;9.162;2023-05-07T06:38:53;15.80;99.90
6948;DHT22;3513;47.664;9.162;2023-05-07T06:41:19;15.80;99.90
6948;DHT22;3513;47.664;9.162;2023-05-07T06:43:45;15.70;99.90
6948;DHT22;3513;47.664;9.162;2023-05-07T06:46:11;15.70;99.90
6948;DHT22;3513;47.664;9.162;2023-05-07T06:48:36;15.80;99.90
6948;DHT22;3513;47.664;9.162;2023-05-07T06:51:02;15.90;99.90
6948;DHT22;3513;47.664;9.162;2023-05-07T06:53:28;16.00;99.90
6948;DHT22;3513;47.664;9.162;2023-05-07T06:55:56;16.10;99.90
6948;DHT22;3513;47.664;9.162;2023-05-07T06:58:21;16.20;99.90
6948;DHT22;3513;47.664;9.162;2023-05-07T07:00:47;16.30;99.90
6948;DHT22;3513;47.664;9.162;2023-05-07T07:03:12;16.30;99.90
6948;DHT22;3513;47.664;9.162;2023-05-07T07:05:39;16.30;99.90
6948;DHT22;3513;47.664;9.162;2023-05-07T07:08:05;16.30;99.90
6948;DHT22;3513;47.664;9.162;2023-05-07T07:10:31;16.40;99.90
6948;DHT22;3513;47.664;9.162;2023-05-07T07:12:56;16.50;99.90
6948;DHT22;3513;47.664;9.162;2023-05-07T07:15:22;16.50;99.90
6948;DHT22;3513;47.664;9.162;2023-05-07T07:17:48;16.60;99.90
6948;DHT22;3513;47.664;9.162;2023-05-07T07:20:13;16.60;99.90
6948;DHT22;3513;47.664;9.162;2023-05-07T07:22:39;16.60;99.90
6948;DHT22;3513;47.664;9.162;2023-05-07T07:25:05;16.50;99.90
6948;DHT22;3513;47.664;9.162;2023-05-07T07:27:31;16.60;99.90
6948;DHT22;3513;47.664;9.162;2023-05-07T07:29:56;16.60;99.40
6948;DHT22;3513;47.664;9.162;2023-05-07T07:32:22;16.70;99.50
6948;DHT22;3513;47.664;9.162;2023-05-07T07:34:47;16.80;98.80
6948;DHT22;3513;47.664;9.162;2023-05-07T07:37:13;16.80;98.20
6948;DHT22;3513;47.664;9.162;2023-05-07T07:39:38;16.80;98.30
6948;DHT22;3513;47.664;9.162;2023-05-07T07:42:04;16.90;98.40
6948;DHT22;3513;47.664;9.162;2023-05-07T07:44:30;17.10;97.40
6948;DHT22;3513;47.664;9.162;2023-05-07T07:46:55;17.20;97.30
6948;DHT22;3513;47.664;9.162;2023-05-07T07:49:21;17.30;97.00
6948;DHT22;3513;47.664;9.162;2023-05-07T07:51:47;17.30;96.60
6948;DHT22;3513;47.664;9.162;2023-05-07T07:54:12;17.50;96.30
6948;DHT22;3513;47.664;9.162;2023-05-07T07:56:38;17.60;95.90
6948;DHT22;3513;47.664;9.162;2023-05-07T07:59:03;17.80;95.90
6948;DHT22;3513;47.664;9.162;2023-05-07T08:01:32;17.90;95.30
6948;DHT22;3513;47.664;9.162;2023-05-07T08:03:58;17.90;95.30
6948;DHT22;3513;47.664;9.162;2023-05-07T08:06:24;18.00;95.20
6948;DHT22;3513;47.664;9.162;2023-05-07T08:08:51;18.20;95.10
6948;DHT22;3513;47.664;9.162;2023-05-07T08:11:17;18.20;95.20
6948;DHT22;3513;47.664;9.162;2023-05-07T08:13:42;18.40;95.10
6948;DHT22;3513;47.664;9.162;2023-05-07T08:16:08;18.40;94.80
6948;DHT22;3513;47.664;9.162;2023-05-07T08:18:34;18.40;95.20
6948;DHT22;3513;47.664;9.162;2023-05-07T08:21:00;18.40;95.00
6948;DHT22;3513;47.664;9.162;2023-05-07T08:23:26;18.50;94.70
6948;DHT22;3513;47.664;9.162;2023-05-07T08:25:51;18.60;94.50
6948;DHT22;3513;47.664;9.162;2023-05-07T08:28:17;18.70;93.90
6948;DHT22;3513;47.664;9.162;2023-05-07T08:30:43;18.80;93.50
6948;DHT22;3513;47.664;9.162;2023-05-07T08:33:09;18.80;93.40
6948;DHT22;3513;47.664;9.162;2023-05-07T08:35:35;18.90;93.30
6948;DHT22;3513;47.664;9.162;2023-05-07T08:38:00;19.00;93.20
6948;DHT22;3513;47.664;9.162;2023-05-07T08:40:26;19.10;92.80
6948;DHT22;3513;47.664;9.162;2023-05-07T08:42:53;19.20;92.50
6948;DHT22;3513;47.664;9.162;2023-05-07T08:45:20;19.30;92.60
6948;DHT22;3513;47.664;9.162;2023-05-07T08:47:55;19.40;92.40
6948;DHT22;3513;47.664;9.162;2023-05-07T08:50:22;19.50;92.20
6948;DHT22;3513;47.664;9.162;2023-05-07T08:52:48;19.60;91.60
6948;DHT22;3513;47.664;9.162;2023-05-07T08:55:14;19.70;91.90
6948;DHT22;3513;47.664;9.162;2023-05-07T08:57:41;19.80;91.70
6948;DHT22;3513;47.664;9.162;2023-05-07T09:00:07;20.00;91.60
6948;DHT22;3513;47.664;9.162;2023-05-07T09:02:35;20.30;91.40
6948;DHT22;3513;47.664;9.162;2023-05-07T09:05:01;20.50;91.20
6948;DHT22;3513;47.664;9.162;2023-05-07T09:07:27;20.70;90.70
6948;DHT22;3513;47.664;9.162;2023-05-07T09:09:53;20.70;88.40
6948;DHT22;3513;47.664;9.162;2023-05-07T09:12:21;20.80;87.50
6948;DHT22;3513;47.664;9.162;2023-05-07T09:14:47;20.60;87.10
6948;DHT22;3513;47.664;9.162;2023-05-07T09:17:13;20.40;87.00
6948;DHT22;3513;47.664;9.162;2023-05-07T09:19:38;20.40;87.40
6948;DHT22;3513;47.664;9.162;2023-05-07T09:22:05;20.50;87.60
6948;DHT22;3513;47.664;9.162;2023-05-07T09:24:34;20.60;85.00
6948;DHT22;3513;47.664;9.162;2023-05-07T09:27:03;20.60;86.20
6948;DHT22;3513;47.664;9.162;2023-05-07T09:29:29;20.70;85.20
6948;DHT22;3513;47.664;9.162;2023-05-07T09:31:56;20.80;84.00
6948;DHT22;3513;47.664;9.162;2023-05-07T09:34:21;21.00;84.20
6948;DHT22;3513;47.664;9.162;2023-05-07T09:36:47;21.10;83.30
6948;DHT22;3513;47.664;9.162;2023-05-07T09:39:13;21.30;82.20
6948;DHT22;3513;47.664;9.162;2023-05-07T09:41:48;21.50;82.30
6948;DHT22;3513;47.664;9.162;2023-05-07T09:44:15;21.70;80.00
6948;DHT22;3513;47.664;9.162;2023-05-07T09:46:43;21.80;80.70
6948;DHT22;3513;47.664;9.162;2023-05-07T09:49:17;22.00;76.80
6948;DHT22;3513;47.664;9.162;2023-05-07T09:51:50;22.20;77.90
6948;DHT22;3513;47.664;9.162;2023-05-07T09:54:17;22.40;76.00
6948;DHT22;3513;47.664;9.162;2023-05-07T09:56:52;22.60;77.10
6948;DHT22;3513;47.664;9.162;2023-05-07T09:59:18;22.80;78.90
6948;DHT22;3513;47.664;9.162;2023-05-07T10:01:45;22.90;79.80
6948;DHT22;3513;47.664;9.162;2023-05-07T10:04:11;23.00;79.70
6948;DHT22;3513;47.664;9.162;2023-05-07T10:06:40;23.20;79.90
6948;DHT22;3513;47.664;9.162;2023-05-07T10:09:07;23.30;79.30
6948;DHT22;3513;47.664;9.162;2023-05-07T10:11:33;23.50;78.60
6948;DHT22;3513;47.664;9.162;2023-05-07T10:14:00;23.60;78.20
6948;DHT22;3513;47.664;9.162;2023-05-07T10:16:34;23.70;76.90
6948;DHT22;3513;47.664;9.162;2023-05-07T10:19:05;23.80;76.40
6948;DHT22;3513;47.664;9.162;2023-05-07T10:21:39;23.90;75.50
6948;DHT22;3513;47.664;9.162;2023-05-07T10:24:08;24.10;74.30
6948;DHT22;3513;47.664;9.162;2023-05-07T10:26:41;24.10;74.40
6948;DHT22;3513;47.664;9.162;2023-05-07T10:29:21;24.30;73.80
6948;DHT22;3513;47.664;9.162;2023-05-07T10:34:37;24.50;72.90
6948;DHT22;3513;47.664;9.162;2023-05-07T10:37:04;24.60;72.40
6948;DHT22;3513;47.664;9.162;2023-05-07T10:39:30;24.50;71.70
6948;DHT22;3513;47.664;9.162;2023-05-07T10:41:56;24.50;71.70
6948;DHT22;3513;47.664;9.162;2023-05-07T10:44:28;24.60;71.60
6948;DHT22;3513;47.664;9.162;2023-05-07T10:47:11;24.70;71.30
6948;DHT22;3513;47.664;9.162;2023-05-07T10:52:29;24.70;71.30
6948;DHT22;3513;47.664;9.162;2023-05-07T10:57:45;24.70;70.30
6948;DHT22;3513;47.664;9.162;2023-05-07T11:05:30;24.60;70.70
6948;DHT22;3513;47.664;9.162;2023-05-07T11:10:21;24.50;70.00
6948;DHT22;3513;47.664;9.162;2023-05-07T11:12:49;24.50;69.80
6948;DHT22;3513;47.664;9.162;2023-05-07T11:15:36;24.40;70.20
6948;DHT22;3513;47.664;9.162;2023-05-07T11:18:02;24.40;70.40
6948;DHT22;3513;47.664;9.162;2023-05-07T11:20:58;24.50;70.50
6948;DHT22;3513;47.664;9.162;2023-05-07T11:28:37;24.60;69.20
6948;DHT22;3513;47.664;9.162;2023-05-07T11:31:03;24.70;69.10
6948;DHT22;3513;47.664;9.162;2023-05-07T11:33:30;25.00;69.50
6948;DHT22;3513;47.664;9.162;2023-05-07T11:35:56;25.10;68.40
6948;DHT22;3513;47.664;9.162;2023-05-07T11:38:22;25.10;67.10
6948;DHT22;3513;47.664;9.162;2023-05-07T11:40:52;25.10;67.00
6948;DHT22;3513;47.664;9.162;2023-05-07T11:43:18;25.10;67.20
6948;DHT22;3513;47.664;9.162;2023-05-07T11:45:46;25.10;66.70
6948;DHT22;3513;47.664;9.162;2023-05-07T11:48:13;25.20;66.40
6948;DHT22;3513;47.664;9.162;2023-05-07T11:51:04;25.30;65.30
6948;DHT22;3513;47.664;9.162;2023-05-07T11:53:41;25.30;65.90
6948;DHT22;3513;47.664;9.162;2023-05-07T11:56:11;25.40;65.90
6948;DHT22;3513;47.664;9.162;2023-05-07T11:58:38;25.40;64.70
6948;DHT22;3513;47.664;9.162;2023-05-07T12:01:04;25.40;64.30
6948;DHT22;3513;47.664;9.162;2023-05-07T12:03:29;25.30;64.50
6948;DHT22;3513;47.664;9.162;2023-05-07T12:05:55;25.40;64.20
6948;DHT22;3513;47.664;9.162;2023-05-07T12:08:21;25.30;63.70
6948;DHT22;3513;47.664;9.162;2023-05-07T12:10:49;25.10;64.30
6948;DHT22;3513;47.664;9.162;2023-05-07T12:13:19;25.10;64.00
6948;DHT22;3513;47.664;9.162;2023-05-07T12:15:45;25.10;63.60
6948;DHT22;3513;47.664;9.162;2023-05-07T12:18:11;25.10;62.90
6948;DHT22;3513;47.664;9.162;2023-05-07T12:20:38;25.00;62.80
6948;DHT22;3513;47.664;9.162;2023-05-07T12:23:03;25.00;63.20
6948;DHT22;3513;47.664;9.162;2023-05-07T12:25:36;25.10;63.30
6948;DHT22;3513;47.664;9.162;2023-05-07T12:28:02;25.10;63.10
6948;DHT22;3513;47.664;9.162;2023-05-07T12:30:31;25.30;63.10
6948;DHT22;3513;47.664;9.162;2023-05-07T12:32:57;25.40;62.40
6948;DHT22;3513;47.664;9.162;2023-05-07T12:35:29;25.60;62.30
6948;DHT22;3513;47.664;9.162;2023-05-07T12:37:59;25.70;61.70
6948;DHT22;3513;47.664;9.162;2023-05-07T12:40:48;25.80;61.60
6948;DHT22;3513;47.664;9.162;2023-05-07T12:43:27;26.00;60.20
6948;DHT22;3513;47.664;9.162;2023-05-07T12:45:55;26.00;59.60
6948;DHT22;3513;47.664;9.162;2023-05-07T12:48:21;26.10;60.00
6948;DHT22;3513;47.664;9.162;2023-05-07T12:50:51;26.30;59.90
6948;DHT22;3513;47.664;9.162;2023-05-07T12:53:19;26.70;59.50
6948;DHT22;3513;47.664;9.162;2023-05-07T12:55:47;27.10;58.60
6948;DHT22;3513;47.664;9.162;2023-05-07T12:58:17;27.60;57.20
6948;DHT22;3513;47.664;9.162;2023-05-07T13:00:44;27.90;56.60
6948;DHT22;3513;47.664;9.162;2023-05-07T13:03:10;28.30;56.20
6948;DHT22;3513;47.664;9.162;2023-05-07T13:05:36;28.50;54.90
6948;DHT22;3513;47.664;9.162;2023-05-07T13:08:02;28.70;54.50
6948;DHT22;3513;47.664;9.162;2023-05-07T13:10:28;28.90;54.00
6948;DHT22;3513;47.664;9.162;2023-05-07T13:12:54;29.10;53.70
6948;DHT22;3513;47.664;9.162;2023-05-07T13:15:20;29.10;52.30
6948;DHT22;3513;47.664;9.162;2023-05-07T13:17:46;28.80;51.60
6948;DHT22;3513;47.664;9.162;2023-05-07T13:20:12;27.90;52.30
6948;DHT22;3513;47.664;9.162;2023-05-07T13:22:39;27.60;54.30
6948;DHT22;3513;47.664;9.162;2023-05-07T13:25:05;27.70;55.10
6948;DHT22;3513;47.664;9.162;2023-05-07T13:27:31;27.70;54.00
6948;DHT22;3513;47.664;9.162;2023-05-07T13:29:57;27.40;54.00
6948;DHT22;3513;47.664;9.162;2023-05-07T13:32:22;27.40;54.80
6948;DHT22;3513;47.664;9.162;2023-05-07T13:34:48;27.40;53.90
6948;DHT22;3513;47.664;9.162;2023-05-07T13:37:13;27.00;53.80
6948;DHT22;3513;47.664;9.162;2023-05-07T13:39:39;26.90;55.00
6948;DHT22;3513;47.664;9.162;2023-05-07T13:42:06;26.40;55.00
6948;DHT22;3513;47.664;9.162;2023-05-07T13:44:31;26.20;55.80
6948;DHT22;3513;47.664;9.162;2023-05-07T13:46:57;26.20;55.90
6948;DHT22;3513;47.664;9.162;2023-05-07T13:49:22;26.20;57.00
6948;DHT22;3513;47.664;9.162;2023-05-07T13:51:49;26.40;57.10
6948;DHT22;3513;47.664;9.162;2023-05-07T13:54:14;26.30;56.40
6948;DHT22;3513;47.664;9.162;2023-05-07T13:56:41;26.40;55.60
6948;DHT22;3513;47.664;9.162;2023-05-07T13:59:06;26.40;55.40
6948;DHT22;3513;47.664;9.162;2023-05-07T14:01:32;26.60;55.50
6948;DHT22;3513;47.664;9.162;2023-05-07T14:03:58;26.70;55.10
6948;DHT22;3513;47.664;9.162;2023-05-07T14:06:25;26.80;55.60
6948;DHT22;3513;47.664;9.162;2023-05-07T14:08:50;27.00;54.70
6948;DHT22;3513;47.664;9.162;2023-05-07T14:11:16;26.90;54.50
6948;DHT22;3513;47.664;9.162;2023-05-07T14:13:42;26.70;54.80
6948;DHT22;3513;47.664;9.162;2023-05-07T14:16:07;26.40;56.10
6948;DHT22;3513;47.664;9.162;2023-05-07T14:18:33;26.00;56.30
6948;DHT22;3513;47.664;9.162;2023-05-07T14:20:59;25.70;57.50
6948;DHT22;3513;47.664;9.162;2023-05-07T14:23:25;25.30;56.70
6948;DHT22;3513;47.664;9.162;2023-05-07T14:25:52;25.10;55.80
6948;DHT22;3513;47.664;9.162;2023-05-07T14:28:18;24.70;55.40
6948;DHT22;3513;47.664;9.162;2023-05-07T14:30:44;24.30;54.70
6948;DHT22;3513;47.664;9.162;2023-05-07T14:33:10;24.00;54.70
6948;DHT22;3513;47.664;9.162;2023-05-07T14:35:35;23.90;55.00
6948;DHT22;3513;47.664;9.162;2023-05-07T14:38:01;23.50;55.90
6948;DHT22;3513;47.664;9.162;2023-05-07T14:40:26;23.20;57.00
6948;DHT22;3513;47.664;9.162;2023-05-07T14:42:52;22.90;57.60
6948;DHT22;3513;47.664;9.162;2023-05-07T14:45:17;22.90;58.40
6948;DHT22;3513;47.664;9.162;2023-05-07T14:47:43;22.60;56.80
6948;DHT22;3513;47.664;9.162;2023-05-07T14:50:09;22.40;57.70
6948;DHT22;3513;47.664;9.162;2023-05-07T14:52:34;22.30;58.00
6948;DHT22;3513;47.664;9.162;2023-05-07T14:55:00;22.20;58.30
6948;DHT22;3513;47.664;9.162;2023-05-07T14:57:25;22.10;57.20
6948;DHT22;3513;47.664;9.162;2023-05-07T14:59:51;21.90;57.20
6948;DHT22;3513;47.664;9.162;2023-05-07T15:02:17;22.00;57.00
6948;DHT22;3513;47.664;9.162;2023-05-07T15:04:43;22.10;57.50
6948;DHT22;3513;47.664;9.162;2023-05-07T15:07:15;22.20;55.50
6948;DHT22;3513;47.664;9.162;2023-05-07T15:09:42;22.20;55.40
6948;DHT22;3513;47.664;9.162;2023-05-07T15:12:07;22.20;55.80
6948;DHT22;3513;47.664;9.162;2023-05-07T15:14:33;22.20;55.80
6948;DHT22;3513;47.664;9.162;2023-05-07T15:17:00;22.20;56.70
6948;DHT22;3513;47.664;9.162;2023-05-07T15:19:25;22.20;57.20
6948;DHT22;3513;47.664;9.162;2023-05-07T15:21:55;22.40;58.00
6948;DHT22;3513;47.664;9.162;2023-05-07T15:24:22;22.60;59.50
6948;DHT22;3513;47.664;9.162;2023-05-07T15:26:47;22.60;60.90
6948;DHT22;3513;47.664;9.162;2023-05-07T15:29:13;22.60;61.40
6948;DHT22;3513;47.664;9.162;2023-05-07T15:31:39;22.40;62.30
6948;DHT22;3513;47.664;9.162;2023-05-07T15:34:05;22.30;62.50
6948;DHT22;3513;47.664;9.162;2023-05-07T15:36:30;22.30;63.20
6948;DHT22;3513;47.664;9.162;2023-05-07T15:38:57;22.10;62.70
6948;DHT22;3513;47.664;9.162;2023-05-07T15:41:22;22.00;62.50
6948;DHT22;3513;47.664;9.162;2023-05-07T15:43:50;21.90;63.60
6948;DHT22;3513;47.664;9.162;2023-05-07T15:46:21;21.90;63.70
6948;DHT22;3513;47.664;9.162;2023-05-07T15:48:48;21.90;64.90
6948;DHT22;3513;47.664;9.162;2023-05-07T15:51:14;21.70;65.20
6948;DHT22;3513;47.664;9.162;2023-05-07T15:53:40;21.60;65.60
6948;DHT22;3513;47.664;9.162;2023-05-07T15:56:05;21.60;66.00
6948;DHT22;3513;47.664;9.162;2023-05-07T15:58:31;21.60;66.30
6948;DHT22;3513;47.664;9.162;2023-05-07T16:00:57;21.40;66.40
6948;DHT22;3513;47.664;9.162;2023-05-07T16:03:23;21.20;66.30
6948;DHT22;3513;47.664;9.162;2023-05-07T16:05:48;21.10;66.00
6948;DHT22;3513;47.664;9.162;2023-05-07T16:08:14;21.00;65.90
6948;DHT22;3513;47.664;9.162;2023-05-07T16:10:39;21.00;65.10
6948;DHT22;3513;47.664;9.162;2023-05-07T16:13:06;20.90;65.40
6948;DHT22;3513;47.664;9.162;2023-05-07T16:15:31;20.80;65.40
6948;DHT22;3513;47.664;9.162;2023-05-07T16:17:57;20.70;65.00
6948;DHT22;3513;47.664;9.162;2023-05-07T16:20:28;20.70;65.70